Time;durP1;ratioP1;P1;durP2;ratioP2;P2;SDS_P1;SDS_P2;PMS_P1;PMS_P2;Temp;Humidity;BMP_temperature;BMP_pressure;BME280_temperature;BME280_humidity;BME280_pressure;Samples;Min_cycle;Max_cycle;Signal;HPM_P1;HPM_P2
2022/01/21 00:00:17;;;;;;;;;;;;;;;19.43;39.24;103250.22;5122931;27;19977;-78
2022/01/21 00:02:43;;;;;;;;;;;;;;;19.44;39.10;103259.28;5150065;27;19915;-78
2022/01/21 00:05:08;;;;;;;;;;;;;;;19.43;39.09;103263.09;5156635;27;19923;-80
2022/01/21 00:07:34;;;;;;;;;;;;;;;19.42;38.97;103262.25;5123839;27;20003;-78
2022/01/21 00:09:59;;;;;;;;;;;;;;;19.42;39.16;103259.50;5136921;27;20029;-78
2022/01/21 00:12:27;;;;;;;;;;;;;;;19.42;38.96;103264.16;5137416;27;19963;-78
2022/01/21 00:14:52;;;;;;;;;;;;;;;19.41;39.09;103259.78;5135903;27;19923;-78
2022/01/21 00:17:20;;;;;;;;;;;;;;;19.41;39.00;103254.28;5136909;27;19927;-78
2022/01/21 00:19:48;;;;;;;;;;;;;;;19.40;38.91;103258.09;5135891;27;19923;-82
2022/01/21 00:30:26;;;;;;;;;;;;;;;19.37;39.12;103264.88;5136038;27;19930;-77
2022/01/21 00:32:51;;;;;;;;;;;;;;;19.37;38.80;103261.31;5134227;27;20278;-78
2022/01/21 00:35:18;;;;;;;;;;;;;;;19.36;38.85;103259.66;5136824;27;20434;-78
2022/01/21 00:37:43;;;;;;;;;;;;;;;19.34;39.00;103254.41;5151438;27;19919;-77
2022/01/21 00:40:10;;;;;;;;;;;;;;;19.34;38.94;103256.31;5137836;27;20007;-77
2022/01/21 00:45:07;;;;;;;;;;;;;;;19.32;38.97;103250.25;5137659;27;19962;-77
2022/01/21 00:47:32;;;;;;;;;;;;;;;19.31;38.85;103245.84;5155837;27;19958;-77
2022/01/21 00:49:57;;;;;;;;;;;;;;;19.30;38.99;103250.47;5136913;27;19970;-77
2022/01/21 00:52:23;;;;;;;;;;;;;;;19.30;38.97;103252.38;5134984;27;19966;-77
2022/01/21 00:54:48;;;;;;;;;;;;;;;19.28;38.76;103254.53;5130307;27;20343;-78
2022/01/21 00:57:14;;;;;;;;;;;;;;;19.28;38.95;103258.13;5127005;27;19927;-77
2022/01/21 00:59:40;;;;;;;;;;;;;;;19.27;38.63;103259.19;5150457;27;20382;-77
2022/01/21 01:02:05;;;;;;;;;;;;;;;19.26;38.70;103259.44;5149461;27;20020;-77
2022/01/21 01:04:31;;;;;;;;;;;;;;;19.26;38.66;103262.19;5135431;27;20375;-77
2022/01/21 01:06:56;;;;;;;;;;;;;;;19.24;38.65;103263.22;5135580;27;20330;-80
2022/01/21 01:09:21;;;;;;;;;;;;;;;19.22;38.60;103265.38;5119955;27;20071;-77
2022/01/21 01:12:12;;;;;;;;;;;;;;;19.23;38.96;103267.06;5153051;27;19982;-77
2022/01/21 01:20:08;;;;;;;;;;;;;;;19.19;38.63;103270.50;5138165;27;19926;-77
2022/01/21 01:23:03;;;;;;;;;;;;;;;19.17;38.62;103276.22;5142000;27;19927;-79
2022/01/21 01:28:04;;;;;;;;;;;;;;;19.15;38.89;103263.84;5134337;27;19967;-77
2022/01/21 01:30:31;;;;;;;;;;;;;;;19.15;38.65;103277.53;5153218;27;19915;-77
2022/01/21 01:32:58;;;;;;;;;;;;;;;19.14;38.65;103268.47;5125112;27;19926;-77
2022/01/21 01:35:25;;;;;;;;;;;;;;;19.13;38.55;103261.34;5135775;27;19919;-78
2022/01/21 01:40:45;;;;;;;;;;;;;;;19.12;38.48;103250.63;5148234;27;19923;-77
2022/01/21 01:51:10;;;;;;;;;;;;;;;19.08;38.50;103246.72;5134399;27;19964;-77
2022/01/21 01:53:37;;;;;;;;;;;;;;;19.06;38.25;103246.94;5146379;27;19987;-77
2022/01/21 01:56:05;;;;;;;;;;;;;;;19.06;38.56;103246.94;5147381;27;19919;-77
2022/01/21 01:58:33;;;;;;;;;;;;;;;19.05;38.58;103241.69;5138518;27;19919;-77
2022/01/21 02:00:59;;;;;;;;;;;;;;;19.04;38.30;103238.13;5134717;27;20282;-78
2022/01/21 02:03:24;;;;;;;;;;;;;;;19.04;38.25;103243.59;5130302;27;19919;-77
2022/01/21 02:05:49;;;;;;;;;;;;;;;19.03;38.36;103240.03;5151494;27;19926;-77
2022/01/21 02:08:14;;;;;;;;;;;;;;;19.02;38.39;103238.38;5145833;27;19938;-78
2022/01/21 02:10:40;;;;;;;;;;;;;;;19.02;38.33;103237.50;5131370;27;19919;-77
2022/01/21 02:13:18;;;;;;;;;;;;;;;19.01;38.30;103239.44;5134828;27;19926;-77
2022/01/21 02:15:44;;;;;;;;;;;;;;;19.01;38.14;103233.13;5119168;27;20030;-77
2022/01/21 02:23:37;;;;;;;;;;;;;;;18.97;38.32;103232.75;5135056;27;20007;-77
2022/01/21 02:26:02;;;;;;;;;;;;;;;18.96;38.28;103242.06;5138735;27;19981;-77
2022/01/21 02:28:27;;;;;;;;;;;;;;;18.95;38.27;103240.41;5143261;27;19931;-77
2022/01/21 02:30:53;;;;;;;;;;;;;;;18.95;38.27;103242.28;5115183;27;19920;-77
2022/01/21 02:33:19;;;;;;;;;;;;;;;18.94;38.01;103241.44;5142671;27;19930;-77
2022/01/21 02:35:44;;;;;;;;;;;;;;;18.94;38.37;103248.84;5117690;27;19926;-77
2022/01/21 02:38:09;;;;;;;;;;;;;;;18.92;38.11;103246.31;5130822;27;19968;-77
2022/01/21 02:40:35;;;;;;;;;;;;;;;18.91;38.15;103243.84;5146342;27;20371;-78
2022/01/21 02:43:00;;;;;;;;;;;;;;;18.91;38.15;103244.66;5109880;27;20322;-84
2022/01/21 02:45:25;;;;;;;;;;;;;;;18.89;38.26;103235.84;5133102;27;19942;-78
2022/01/21 02:47:50;;;;;;;;;;;;;;;18.89;38.20;103246.81;5123921;27;20278;-77
2022/01/21 02:50:16;;;;;;;;;;;;;;;18.88;38.17;103247.91;5136568;27;19976;-77
2022/01/21 02:52:54;;;;;;;;;;;;;;;18.86;38.21;103252.78;5126239;27;19927;-77
2022/01/21 02:55:20;;;;;;;;;;;;;;;18.85;38.09;103245.63;5125041;27;20459;-78
2022/01/21 02:57:45;;;;;;;;;;;;;;;18.84;38.26;103252.16;5135031;27;20283;-77
2022/01/21 03:00:10;;;;;;;;;;;;;;;18.83;38.06;103256.00;5134384;27;19919;-77
2022/01/21 03:02:36;;;;;;;;;;;;;;;18.82;38.02;103257.03;5122017;27;20255;-77
2022/01/21 03:05:07;;;;;;;;;;;;;;;18.81;38.11;103255.38;5144618;27;19927;-83
2022/01/21 03:07:32;;;;;;;;;;;;;;;18.80;38.05;103249.09;5137156;27;19927;-80
2022/01/21 03:09:57;;;;;;;;;;;;;;;18.80;38.10;103251.00;5157640;27;19915;-77
2022/01/21 03:12:23;;;;;;;;;;;;;;;18.79;38.15;103260.25;5147041;27;19927;-77
2022/01/21 03:14:48;;;;;;;;;;;;;;;18.77;38.19;103257.78;5145843;27;19946;-77
2022/01/21 03:17:13;;;;;;;;;;;;;;;18.76;38.10;103267.03;5147999;27;20002;-77
2022/01/21 03:19:38;;;;;;;;;;;;;;;18.75;37.98;103259.06;5138528;27;19923;-77
2022/01/21 03:22:05;;;;;;;;;;;;;;;18.75;37.97;103265.38;5143700;27;19974;-78
2022/01/21 03:24:30;;;;;;;;;;;;;;;18.74;38.06;103263.66;5118499;27;19946;-78
2022/01/21 03:26:55;;;;;;;;;;;;;;;18.74;37.90;103265.56;5122494;27;20363;-77
2022/01/21 03:29:20;;;;;;;;;;;;;;;18.73;37.88;103269.41;5152990;27;19923;-77
2022/01/21 03:31:46;;;;;;;;;;;;;;;18.72;38.09;103274.06;5121769;27;19944;-77
2022/01/21 03:34:11;;;;;;;;;;;;;;;18.71;38.04;103266.06;5153708;27;19923;-78
2022/01/21 03:36:38;;;;;;;;;;;;;;;18.71;38.05;103266.06;5144271;27;20331;-77
2022/01/21 03:39:03;;;;;;;;;;;;;;;18.70;37.94;103264.41;5137906;27;20320;-84
2022/01/21 03:41:29;;;;;;;;;;;;;;;18.69;38.09;103274.50;5136379;27;19923;-77
2022/01/21 03:43:54;;;;;;;;;;;;;;;18.68;38.07;103272.00;5136903;27;19919;-77
2022/01/21 03:46:19;;;;;;;;;;;;;;;18.68;38.02;103274.75;5117716;27;20259;-78
2022/01/21 03:48:48;;;;;;;;;;;;;;;18.66;38.12;103274.16;5149692;27;19923;-77
2022/01/21 03:51:13;;;;;;;;;;;;;;;18.66;38.15;103268.66;5156717;27;20031;-77
2022/01/21 03:53:39;;;;;;;;;;;;;;;18.65;38.34;103272.47;5156852;27;20319;-78
2022/01/21 03:56:04;;;;;;;;;;;;;;;18.64;38.30;103268.91;5139184;27;19946;-77
2022/01/21 03:58:29;;;;;;;;;;;;;;;18.63;37.92;103275.44;5140311;27;19921;-77
2022/01/21 04:00:55;;;;;;;;;;;;;;;18.63;38.04;103274.63;5155605;27;20019;-77
2022/01/21 04:03:21;;;;;;;;;;;;;;;18.62;38.04;103281.16;5156938;27;19950;-78
2022/01/21 04:05:47;;;;;;;;;;;;;;;18.60;38.13;103279.50;5139978;27;19920;-77
2022/01/21 04:08:14;;;;;;;;;;;;;;;18.60;37.90;103281.41;5155907;27;19926;-77
2022/01/21 04:10:42;;;;;;;;;;;;;;;18.59;38.12;103271.50;5155446;27;19927;-80
2022/01/21 04:13:14;;;;;;;;;;;;;;;18.58;37.86;103267.94;5146715;27;19919;-77
2022/01/21 04:15:39;;;;;;;;;;;;;;;18.57;38.21;103270.91;5153810;27;19967;-77
2022/01/21 04:18:04;;;;;;;;;;;;;;;18.56;38.22;103278.28;5133020;27;19970;-77
2022/01/21 04:20:30;;;;;;;;;;;;;;;18.56;38.12;103272.81;5146737;27;19927;-77
2022/01/21 04:22:55;;;;;;;;;;;;;;;18.55;38.15;103268.41;5157064;27;20256;-77
2022/01/21 04:25:20;;;;;;;;;;;;;;;18.54;38.01;103277.69;5145384;27;20423;-77
2022/01/21 04:27:46;;;;;;;;;;;;;;;18.53;38.18;103272.47;5125781;27;20474;-76
2022/01/21 04:30:11;;;;;;;;;;;;;;;18.53;38.09;103267.81;5142297;27;19919;-77
2022/01/21 04:32:37;;;;;;;;;;;;;;;18.53;37.97;103269.72;5146330;27;20283;-77
2022/01/21 04:35:02;;;;;;;;;;;;;;;18.51;38.12;103261.72;5119596;27;19975;-77
2022/01/21 04:37:28;;;;;;;;;;;;;;;18.50;38.36;103260.06;5138761;27;20267;-77
2022/01/21 04:47:35;;;;;;;;;;;;;;;18.49;38.13;103271.25;5156757;27;19996;-78
2022/01/21 04:50:01;;;;;;;;;;;;;;;18.47;38.00;103271.50;5141157;27;19923;-77
2022/01/21 04:52:26;;;;;;;;;;;;;;;18.47;38.07;103270.66;5151610;27;19926;-77
2022/01/21 04:54:52;;;;;;;;;;;;;;;18.46;37.97;103271.72;5141804;27;20384;-77
2022/01/21 04:57:17;;;;;;;;;;;;;;;18.46;38.06;103277.19;5147333;27;20372;-77
2022/01/21 04:59:43;;;;;;;;;;;;;;;18.46;38.27;103269.00;5149456;27;20005;-78
2022/01/21 05:02:08;;;;;;;;;;;;;;;18.45;38.15;103270.06;5137161;27;19922;-78
2022/01/21 05:04:34;;;;;;;;;;;;;;;18.44;38.08;103271.13;5134828;27;20013;-79
2022/01/21 05:07:02;;;;;;;;;;;;;;;18.43;38.04;103264.81;5136003;27;20286;-77
2022/01/21 05:09:32;;;;;;;;;;;;;;;18.42;38.18;103257.69;5119690;27;20279;-77
2022/01/21 05:11:59;;;;;;;;;;;;;;;18.42;38.22;103257.69;5135497;27;19916;-77
2022/01/21 05:14:50;;;;;;;;;;;;;;;18.41;38.14;103256.00;5135009;27;19915;-78
2022/01/21 05:17:14;;;;;;;;;;;;;;;18.40;38.03;103253.53;5137137;27;20010;-77
2022/01/21 05:19:39;;;;;;;;;;;;;;;18.40;38.07;103257.09;5139660;27;19971;-77
2022/01/21 05:22:04;;;;;;;;;;;;;;;18.38;38.15;103260.03;5137309;27;19919;-77
2022/01/21 05:24:29;;;;;;;;;;;;;;;18.38;37.92;103259.22;5154039;27;19945;-78
2022/01/21 05:26:58;;;;;;;;;;;;;;;18.37;37.99;103266.59;5128893;27;19972;-78
2022/01/21 05:29:26;;;;;;;;;;;;;;;18.36;37.93;103262.16;5153703;27;20014;-78
2022/01/21 05:31:52;;;;;;;;;;;;;;;18.35;38.08;103268.72;5144268;27;19919;-77
2022/01/21 05:34:17;;;;;;;;;;;;;;;18.36;38.16;103273.13;5115507;27;20288;-78
2022/01/21 05:36:42;;;;;;;;;;;;;;;18.35;38.13;103268.72;5119843;27;19923;-77
2022/01/21 05:39:08;;;;;;;;;;;;;;;18.34;38.16;103272.53;5147530;27;19919;-77
2022/01/21 05:41:33;;;;;;;;;;;;;;;18.34;38.00;103266.22;5154270;27;20005;-77
2022/01/21 05:44:03;;;;;;;;;;;;;;;18.33;38.20;103254.44;5153928;27;19923;-77
2022/01/21 05:47:14;;;;;;;;;;;;;;;18.33;38.11;103262.66;5144938;27;20002;-77
2022/01/21 05:49:15;;;;;;;;;;;;;;;18.32;38.25;103251.91;5130746;27;19919;-79
2022/01/21 05:51:41;;;;;;;;;;;;;;;18.32;38.21;103250.03;5135093;27;19923;-79
2022/01/21 05:54:08;;;;;;;;;;;;;;;18.31;38.20;103259.31;5121030;27;19919;-77
2022/01/21 05:56:33;;;;;;;;;;;;;;;18.31;38.38;103263.94;5154424;27;19967;-78
2022/01/21 05:59:00;;;;;;;;;;;;;;;18.30;38.24;103271.31;5151221;27;20021;-77
2022/01/21 06:01:25;;;;;;;;;;;;;;;18.30;38.29;103265.03;5115808;27;20004;-77
2022/01/21 06:03:50;;;;;;;;;;;;;;;18.29;38.15;103261.44;5153849;27;19968;-77
2022/01/21 06:06:16;;;;;;;;;;;;;;;18.29;38.28;103257.88;5154640;27;20373;-80
2022/01/21 06:08:41;;;;;;;;;;;;;;;18.28;38.28;103264.41;5120333;27;19916;-77
2022/01/21 06:11:06;;;;;;;;;;;;;;;18.27;38.13;103258.13;5146389;27;21593;-77
2022/01/21 06:13:32;;;;;;;;;;;;;;;18.28;38.14;103261.69;5136302;27;19923;-77
2022/01/21 06:15:59;;;;;;;;;;;;;;;18.26;38.37;103272.84;5136229;27;19968;-78
2022/01/21 06:18:24;;;;;;;;;;;;;;;18.26;38.15;103283.78;5152473;27;19922;-77
2022/01/21 06:20:50;;;;;;;;;;;;;;;18.26;38.24;103272.03;5135485;27;20010;-79
2022/01/21 06:23:15;;;;;;;;;;;;;;;18.24;38.30;103274.16;5124654;27;19965;-77
2022/01/21 06:25:41;;;;;;;;;;;;;;;18.23;38.18;103276.06;5121290;27;19954;-77
2022/01/21 06:28:06;;;;;;;;;;;;;;;18.23;38.26;103273.31;5154137;27;19922;-77
2022/01/21 06:30:32;;;;;;;;;;;;;;;18.24;38.36;103276.88;5140160;27;19968;-77
2022/01/21 06:32:57;;;;;;;;;;;;;;;18.22;38.35;103277.13;5134489;27;19942;-77
2022/01/21 06:35:22;;;;;;;;;;;;;;;18.22;38.37;103288.06;5129390;27;20401;-78
2022/01/21 06:37:48;;;;;;;;;;;;;;;18.22;38.18;103288.06;5150770;27;19923;-77
2022/01/21 06:40:15;;;;;;;;;;;;;;;18.21;38.21;103304.72;5146190;27;19920;-77
2022/01/21 06:42:40;;;;;;;;;;;;;;;18.19;38.44;103302.19;5137084;27;20081;-77
2022/01/21 06:45:06;;;;;;;;;;;;;;;18.20;38.30;103308.53;5133579;27;20403;-78
2022/01/21 06:47:32;;;;;;;;;;;;;;;18.19;38.26;103323.25;5152648;27;20006;-77
2022/01/21 06:49:59;;;;;;;;;;;;;;;18.18;38.21;103322.41;5134574;27;19926;-78
2022/01/21 06:52:29;;;;;;;;;;;;;;;18.19;38.19;103317.78;5126355;27;20565;-78
2022/01/21 06:54:55;;;;;;;;;;;;;;;18.17;38.50;103327.06;5145248;27;19923;-78
2022/01/21 06:57:20;;;;;;;;;;;;;;;18.17;38.35;103327.06;5135429;27;19920;-81
2022/01/21 06:59:47;;;;;;;;;;;;;;;18.17;38.12;103321.59;5135750;27;19919;-77
2022/01/21 07:02:12;;;;;;;;;;;;;;;18.16;38.40;103324.56;5152418;27;19919;-78
2022/01/21 07:04:38;;;;;;;;;;;;;;;18.16;38.11;103324.56;5147262;27;20328;-78
2022/01/21 07:07:04;;;;;;;;;;;;;;;18.16;38.34;103333.59;5145429;27;19923;-78
2022/01/21 07:09:29;;;;;;;;;;;;;;;18.15;38.36;103331.09;5135119;27;19923;-77
2022/01/21 07:11:55;;;;;;;;;;;;;;;18.14;38.36;103327.53;5125209;27;19930;-77
2022/01/21 07:14:21;;;;;;;;;;;;;;;18.13;38.40;103334.06;5153323;27;20370;-77
2022/01/21 07:16:46;;;;;;;;;;;;;;;18.13;38.38;103338.69;5149797;27;19971;-78
2022/01/21 07:19:12;;;;;;;;;;;;;;;18.13;38.57;103339.53;5133924;27;19919;-77
2022/01/21 07:21:37;;;;;;;;;;;;;;;18.13;38.34;103336.78;5133126;27;19919;-77
2022/01/21 07:24:02;;;;;;;;;;;;;;;18.12;38.54;103337.88;5151694;27;19926;-77
2022/01/21 07:26:28;;;;;;;;;;;;;;;18.12;38.48;103335.13;5135786;27;19919;-77
2022/01/21 07:28:53;;;;;;;;;;;;;;;18.11;38.49;103336.19;5142847;27;20396;-77
2022/01/21 07:31:18;;;;;;;;;;;;;;;18.11;38.55;103336.19;5153140;27;19930;-78
2022/01/21 07:33:43;;;;;;;;;;;;;;;18.10;38.52;103333.69;5152241;27;19922;-77
2022/01/21 07:36:09;;;;;;;;;;;;;;;18.11;38.57;103349.03;5135080;27;20010;-77
2022/01/21 07:38:34;;;;;;;;;;;;;;;18.10;38.63;103347.38;5122995;27;19962;-77
2022/01/21 07:40:59;;;;;;;;;;;;;;;18.09;38.31;103351.16;5148729;27;19987;-77
2022/01/21 07:43:25;;;;;;;;;;;;;;;18.09;38.51;103351.16;5142792;27;20010;-81
2022/01/21 07:45:50;;;;;;;;;;;;;;;18.09;38.48;103340.22;5133487;27;20431;-79
2022/01/21 07:48:15;;;;;;;;;;;;;;;18.08;38.47;103361.25;5142458;27;19929;-80
2022/01/21 07:50:40;;;;;;;;;;;;;;;18.08;38.70;103368.63;5145898;27;19932;-81
2022/01/21 07:53:06;;;;;;;;;;;;;;;18.07;38.82;103362.34;5150155;27;19954;-78
2022/01/21 07:55:31;;;;;;;;;;;;;;;18.07;39.06;103364.25;5123337;27;20336;-78
2022/01/21 07:57:56;;;;;;;;;;;;;;;18.06;39.03;103362.56;5129177;27;19919;-78
2022/01/21 08:00:23;;;;;;;;;;;;;;;18.00;39.15;103356.09;5133066;27;19930;-77
2022/01/21 08:02:48;;;;;;;;;;;;;;;17.95;39.21;103362.25;5145234;27;19919;-77
2022/01/21 08:05:13;;;;;;;;;;;;;;;17.88;39.26;103353.28;5122680;27;19920;-77
2022/01/21 08:07:39;;;;;;;;;;;;;;;17.83;39.36;103344.94;5139640;27;20371;-77
2022/01/21 08:10:04;;;;;;;;;;;;;;;17.77;39.51;103345.84;5157772;27;19919;-77
2022/01/21 08:12:29;;;;;;;;;;;;;;;17.73;39.36;103344.59;5132273;27;19919;-79
2022/01/21 08:14:55;;;;;;;;;;;;;;;17.69;39.28;103340.69;5156704;27;20025;-77
2022/01/21 08:17:20;;;;;;;;;;;;;;;17.64;39.39;103335.88;5154887;27;19932;-77
2022/01/21 08:19:45;;;;;;;;;;;;;;;17.60;39.42;103342.84;5138926;27;19919;-77
2022/01/21 08:22:11;;;;;;;;;;;;;;;17.56;39.37;103338.91;5157394;27;19926;-77
2022/01/21 08:24:36;;;;;;;;;;;;;;;17.51;39.53;103339.59;5149636;27;20402;-78
2022/01/21 08:27:01;;;;;;;;;;;;;;;17.49;39.40;103329.97;5118029;27;19970;-77
2022/01/21 08:29:26;;;;;;;;;;;;;;;17.46;39.50;103319.47;5138528;27;19927;-76
2022/01/21 08:31:52;;;;;;;;;;;;;;;17.43;39.21;103328.13;5157535;27;20010;-76
2022/01/21 08:34:17;;;;;;;;;;;;;;;17.41;39.50;103341.16;5151975;27;19962;-77
2022/01/21 08:36:44;;;;;;;;;;;;;;;17.39;39.21;103337.84;5136737;27;19930;-78
2022/01/21 08:39:09;;;;;;;;;;;;;;;17.36;39.26;103347.31;5136636;27;20379;-77
2022/01/21 08:41:34;;;;;;;;;;;;;;;17.35;39.37;103334.69;5135875;27;20026;-79
2022/01/21 08:44:00;;;;;;;;;;;;;;;17.33;39.31;103344.19;5124645;27;20395;-76
2022/01/21 08:46:25;;;;;;;;;;;;;;;17.32;39.27;103356.19;5154201;27;20368;-76
2022/01/21 08:48:50;;;;;;;;;;;;;;;17.32;39.18;103357.00;5140545;27;19922;-76
2022/01/21 08:51:23;;;;;;;;;;;;;;;17.32;39.24;103346.09;5135607;27;19940;-76
2022/01/21 08:53:48;;;;;;;;;;;;;;;17.37;39.22;103343.50;5142779;27;19916;-75
2022/01/21 08:56:16;;;;;;;;;;;;;;;17.41;39.23;103344.75;5144996;27;19911;-76
2022/01/21 08:58:42;;;;;;;;;;;;;;;17.45;39.03;103340.47;5143675;27;19934;-75
2022/01/21 09:01:09;;;;;;;;;;;;;;;17.50;39.08;103339.81;5146600;27;20330;-76
2022/01/21 09:03:35;;;;;;;;;;;;;;;17.54;38.86;103341.03;5142800;27;20279;-75
2022/01/21 09:06:00;;;;;;;;;;;;;;;17.58;39.18;103347.72;5143309;27;19926;-76
2022/01/21 09:08:30;;;;;;;;;;;;;;;17.62;39.12;103338.00;5143883;27;20027;-75
2022/01/21 09:10:56;;;;;;;;;;;;;;;17.67;39.18;103334.59;5144537;27;19976;-76
2022/01/21 09:13:22;;;;;;;;;;;;;;;17.71;39.02;103330.31;5127534;27;19938;-75
2022/01/21 09:15:48;;;;;;;;;;;;;;;17.74;39.07;103325.25;5141974;27;20327;-76
2022/01/21 09:18:18;;;;;;;;;;;;;;;17.79;38.93;103320.97;5118969;27;19916;-79
2022/01/21 09:20:43;;;;;;;;;;;;;;;17.83;39.17;103308.56;5138421;27;19973;-79
2022/01/21 09:23:09;;;;;;;;;;;;;;;17.87;39.12;103310.63;5148543;27;19962;-79
2022/01/21 09:25:34;;;;;;;;;;;;;;;17.91;39.32;103316.47;5102668;27;19919;-84
2022/01/21 09:28:01;;;;;;;;;;;;;;;17.95;39.18;103313.03;5145999;27;20371;-80
2022/01/21 09:30:26;;;;;;;;;;;;;;;18.00;39.13;103315.09;5133569;27;19919;-85
2022/01/21 09:32:51;;;;;;;;;;;;;;;18.04;39.31;103315.44;5134196;27;19926;-80
2022/01/21 09:35:17;;;;;;;;;;;;;;;18.08;39.44;103322.13;5134838;27;19919;-77
2022/01/21 09:37:42;;;;;;;;;;;;;;;18.11;39.27;103327.97;5140959;27;20363;-80
2022/01/21 09:40:08;;;;;;;;;;;;;;;18.15;39.35;103333.84;5138173;27;19966;-77
2022/01/21 09:42:34;;;;;;;;;;;;;;;18.17;39.46;103329.81;5153033;27;19919;-81
2022/01/21 09:45:00;;;;;;;;;;;;;;;18.22;39.25;103328.25;5146139;27;20378;-78
2022/01/21 09:47:27;;;;;;;;;;;;;;;18.24;39.11;103337.06;5143043;27;20019;-83
2022/01/21 09:49:54;;;;;;;;;;;;;;;18.26;39.13;103351.34;5126774;27;20432;-81
2022/01/21 09:52:21;;;;;;;;;;;;;;;18.28;39.20;103349.25;5153271;27;19926;-84
2022/01/21 09:54:48;;;;;;;;;;;;;;;18.30;39.20;103358.06;5133093;27;19923;-82
2022/01/21 09:57:23;;;;;;;;;;;;;;;18.32;39.14;103361.38;5126282;27;19988;-85
2022/01/21 09:59:49;;;;;;;;;;;;;;;18.34;39.45;103362.84;5105164;27;19942;-82
2022/01/21 10:02:16;;;;;;;;;;;;;;;18.37;39.55;103358.81;5118934;27;20294;-82
2022/01/21 10:04:47;;;;;;;;;;;;;;;18.40;39.57;103369.28;5117936;27;19923;-84
2022/01/21 10:07:17;;;;;;;;;;;;;;;18.42;39.38;103369.88;5123491;27;19927;-83
2022/01/21 10:09:44;;;;;;;;;;;;;;;18.44;39.39;103367.72;5142970;27;19959;-82
2022/01/21 10:12:10;;;;;;;;;;;;;;;18.45;39.53;103371.31;5122323;27;20363;-84
2022/01/21 10:14:35;;;;;;;;;;;;;;;18.48;39.59;103371.69;5131529;27;19998;-82
2022/01/21 10:17:00;;;;;;;;;;;;;;;18.48;39.63;103368.94;5153264;27;19922;-83
2022/01/21 10:19:30;;;;;;;;;;;;;;;18.50;39.48;103380.50;5143051;27;19926;-87
2022/01/21 10:22:00;;;;;;;;;;;;;;;18.52;39.43;103381.13;5139509;27;19919;-82
2022/01/21 10:24:26;;;;;;;;;;;;;;;18.53;39.51;103381.94;5115472;27;20264;-83
2022/01/21 10:26:53;;;;;;;;;;;;;;;18.54;39.37;103391.81;5117569;27;20394;-82
2022/01/21 10:29:19;;;;;;;;;;;;;;;18.54;39.25;103392.66;5136104;27;20399;-82
2022/01/21 10:31:58;;;;;;;;;;;;;;;18.56;39.48;103397.91;5122153;27;19923;-83
2022/01/21 10:34:27;;;;;;;;;;;;;;;18.56;39.32;103390.50;5135387;27;19919;-79
2022/01/21 10:36:57;;;;;;;;;;;;;;;18.58;39.31;103395.75;5120293;27;19968;-78
2022/01/21 10:39:30;;;;;;;;;;;;;;;18.60;39.44;103396.38;5113337;27;19929;-83
2022/01/21 10:41:57;;;;;;;;;;;;;;;18.62;39.63;103399.69;5137117;27;20386;-76
2022/01/21 10:44:25;;;;;;;;;;;;;;;18.65;39.56;103398.38;5121044;27;19924;-80
